createdAt,value
2022-11-01T00:00:27.435Z,101020.22
2022-11-01T00:02:56.857Z,101016.19
2022-11-01T00:05:23.377Z,101008.00
2022-11-01T00:07:53.033Z,101005.47
2022-11-01T00:10:19.629Z,101013.16
2022-11-01T00:12:47.046Z,101020.13
2022-11-01T00:15:13.594Z,100999.25
2022-11-01T00:17:40.170Z,101006.84
2022-11-01T00:20:06.967Z,100997.69
2022-11-01T00:22:33.530Z,101003.78
2022-11-01T00:25:00.096Z,100996.13
2022-11-01T00:27:26.664Z,101001.72
2022-11-01T00:29:53.257Z,100998.69
2022-11-01T00:32:19.795Z,101003.94
2022-11-01T00:34:46.346Z,101004.16
2022-11-01T00:37:12.948Z,101001.22
2022-11-01T00:39:39.498Z,100995.78
2022-11-01T00:42:06.157Z,100996.81
2022-11-01T00:44:32.782Z,100995.13
2022-11-01T00:46:59.369Z,101002.19
2022-11-01T00:49:25.965Z,100994.59
2022-11-01T00:51:52.477Z,101002.22
2022-11-01T00:54:19.021Z,100997.50
2022-11-01T00:56:45.579Z,100986.44
2022-11-01T00:59:12.201Z,100978.56
2022-11-01T01:01:38.969Z,100970.28
2022-11-01T01:04:05.627Z,100957.13
2022-11-01T01:06:32.177Z,100959.00
2022-11-01T01:09:00.623Z,100942.88
2022-11-01T01:11:27.939Z,100942.28
2022-11-01T01:13:54.501Z,100948.28
2022-11-01T01:16:21.072Z,100956.59
2022-11-01T01:18:47.652Z,100952.16
2022-11-01T01:21:15.432Z,100943.22
2022-11-01T01:23:43.410Z,100948.75
2022-11-01T01:26:11.284Z,100949.16
2022-11-01T01:28:41.904Z,100943.22
2022-11-01T01:31:13.987Z,100943.94
2022-11-01T01:33:41.064Z,100936.00
2022-11-01T01:36:07.976Z,100947.47
2022-11-01T01:38:34.683Z,100941.44
2022-11-01T01:41:21.326Z,100933.03
2022-11-01T01:43:47.835Z,100924.34
2022-11-01T01:46:14.473Z,100917.81
2022-11-01T01:48:44.690Z,100911.09
2022-11-01T01:51:18.053Z,100914.13
2022-11-01T01:53:47.697Z,100913.19
2022-11-01T01:56:22.936Z,100898.22
2022-11-01T01:58:58.927Z,100900.09
2022-11-01T02:01:26.546Z,100884.00
2022-11-01T02:03:53.250Z,100869.44
2022-11-01T02:06:25.607Z,100882.31
2022-11-01T02:08:58.037Z,100871.31
2022-11-01T02:11:24.567Z,100860.03
2022-11-01T02:13:51.515Z,100854.66
2022-11-01T02:16:36.306Z,100844.97
2022-11-01T02:19:26.855Z,100837.09
2022-11-01T02:22:05.301Z,100838.75
2022-11-01T02:25:29.194Z,100827.59
2022-11-01T02:28:10.536Z,100829.94
2022-11-01T02:30:45.052Z,100824.50
2022-11-01T02:33:17.367Z,100830.59
2022-11-01T02:36:30.074Z,100832.53
2022-11-01T02:39:16.293Z,100821.66
2022-11-01T02:41:51.259Z,100813.75
2022-11-01T02:44:25.689Z,100814.34
2022-11-01T02:47:02.966Z,100805.69
2022-11-01T02:49:37.741Z,100799.97
2022-11-01T02:52:07.196Z,100799.38
2022-11-01T02:54:44.199Z,100783.69
2022-11-01T02:57:17.007Z,100786.78
2022-11-01T02:59:46.803Z,100794.50
2022-11-01T03:02:44.234Z,100774.47
2022-11-01T03:05:23.706Z,100766.03
2022-11-01T03:07:55.521Z,100759.09
2022-11-01T03:10:28.346Z,100777.88
2022-11-01T03:13:10.866Z,100776.69
2022-11-01T03:15:46.276Z,100787.44
2022-11-01T03:18:25.230Z,100780.50
2022-11-01T03:21:01.615Z,100771.41
2022-11-01T03:23:57.162Z,100772.56
2022-11-01T03:26:27.555Z,100757.00
2022-11-01T03:28:59.559Z,100761.88
2022-11-01T03:31:31.276Z,100753.75
2022-11-01T03:34:01.839Z,100760.56
2022-11-01T03:36:35.319Z,100751.50
2022-11-01T03:39:26.214Z,100744.09
2022-11-01T03:41:59.812Z,100751.16
2022-11-01T03:44:30.689Z,100732.81
2022-11-01T03:46:57.377Z,100736.88
2022-11-01T03:49:23.932Z,100735.53
2022-11-01T03:51:50.493Z,100727.84
2022-11-01T03:54:17.060Z,100722.75
2022-11-01T03:56:43.666Z,100717.94
2022-11-01T03:59:11.060Z,100717.22
2022-11-01T04:01:37.830Z,100723.34
2022-11-01T04:04:04.622Z,100733.47
2022-11-01T04:06:31.226Z,100728.22
2022-11-01T04:08:57.885Z,100720.16
2022-11-01T04:11:24.408Z,100730.03
2022-11-01T04:13:51.107Z,100722.09
2022-11-01T04:16:36.333Z,100734.78
2022-11-01T04:19:21.751Z,100713.78
2022-11-01T04:21:48.461Z,100716.59
2022-11-01T04:24:21.071Z,100708.84
2022-11-01T04:26:48.022Z,100711.31
2022-11-01T04:29:14.685Z,100703.09
2022-11-01T04:31:41.267Z,100697.75
2022-11-01T04:34:07.867Z,100694.16
2022-11-01T04:36:34.425Z,100692.41
2022-11-01T04:39:00.979Z,100697.22
2022-11-01T04:41:29.206Z,100693.63
2022-11-01T04:43:59.583Z,100701.19
2022-11-01T04:46:29.388Z,100699.94
2022-11-01T04:48:55.944Z,100703.09
2022-11-01T04:51:22.516Z,100705.38
2022-11-01T04:53:49.093Z,100703.72
2022-11-01T04:56:15.681Z,100694.91
2022-11-01T04:58:45.140Z,100697.53
2022-11-01T05:01:14.473Z,100697.25
2022-11-01T05:03:41.721Z,100708.81
2022-11-01T05:06:08.390Z,100698.50
2022-11-01T05:08:34.926Z,100690.78
2022-11-01T05:11:01.953Z,100680.59
2022-11-01T05:13:28.572Z,100678.88
2022-11-01T05:16:17.900Z,100686.03
2022-11-01T05:18:44.870Z,100676.75
2022-11-01T05:21:11.981Z,100670.50
2022-11-01T05:23:38.566Z,100671.84
2022-11-01T05:26:05.413Z,100679.00
2022-11-01T05:28:32.108Z,100686.69
2022-11-01T05:30:58.981Z,100688.66
2022-11-01T05:33:25.871Z,100680.50
2022-11-01T05:35:52.496Z,100689.16
2022-11-01T05:38:19.048Z,100696.63
2022-11-01T05:40:45.606Z,100694.03
2022-11-01T05:43:12.199Z,100688.38
2022-11-01T05:45:38.786Z,100678.31
2022-11-01T05:48:05.980Z,100679.25
2022-11-01T05:50:32.637Z,100668.03
2022-11-01T05:53:10.317Z,100654.53
2022-11-01T05:55:37.744Z,100669.69
2022-11-01T05:58:04.433Z,100668.03
2022-11-01T06:00:31.553Z,100671.00
2022-11-01T06:02:59.244Z,100681.22
2022-11-01T06:05:27.330Z,100686.22
2022-11-01T06:07:53.892Z,100695.91
2022-11-01T06:10:20.475Z,100684.50
2022-11-01T06:12:47.086Z,100693.44
2022-11-01T06:15:13.739Z,100693.53
2022-11-01T06:17:40.273Z,100700.28
2022-11-01T06:20:07.343Z,100686.63
2022-11-01T06:22:36.189Z,100682.88
2022-11-01T06:25:02.854Z,100693.28
2022-11-01T06:27:29.566Z,100684.91
2022-11-01T06:29:56.147Z,100701.41
2022-11-01T06:32:22.772Z,100699.63
2022-11-01T06:34:49.368Z,100705.31
2022-11-01T06:37:15.905Z,100710.75
2022-11-01T06:39:42.770Z,100705.94
2022-11-01T06:42:10.117Z,100703.63
2022-11-01T06:44:36.716Z,100705.09
2022-11-01T06:47:03.439Z,100703.31
2022-11-01T06:49:30.527Z,100712.97
2022-11-01T06:51:57.215Z,100720.91
2022-11-01T06:54:23.861Z,100721.09
2022-11-01T06:56:50.462Z,100722.91
2022-11-01T06:59:17.061Z,100736.59
2022-11-01T07:01:44.423Z,100732.38
2022-11-01T07:06:42.752Z,100736.31
2022-11-01T07:09:10.321Z,100736.03
2022-11-01T07:11:36.934Z,100735.28
2022-11-01T07:14:04.150Z,100755.69
2022-11-01T07:16:31.444Z,100751.53
2022-11-01T07:18:58.051Z,100752.56
2022-11-01T07:21:25.016Z,100756.06
2022-11-01T07:23:53.699Z,100759.72
2022-11-01T07:26:20.924Z,100764.97
2022-11-01T07:28:47.709Z,100762.50
2022-11-01T07:31:14.465Z,100752.88
2022-11-01T07:33:41.031Z,100761.06
2022-11-01T07:36:08.200Z,100756.25
2022-11-01T07:38:34.767Z,100755.84
2022-11-01T07:41:03.639Z,100757.38
2022-11-01T07:43:30.197Z,100753.88
2022-11-01T07:46:00.114Z,100752.56
2022-11-01T07:48:26.720Z,100754.03
2022-11-01T07:50:56.344Z,100753.03
2022-11-01T07:53:22.920Z,100755.56
2022-11-01T07:55:49.746Z,100753.00
2022-11-01T07:58:16.682Z,100743.69
2022-11-01T08:00:44.491Z,100753.03
2022-11-01T08:03:14.446Z,100749.75
2022-11-01T08:05:41.682Z,100757.81
2022-11-01T08:08:09.220Z,100752.72
2022-11-01T08:10:37.015Z,100759.41
2022-11-01T08:13:24.288Z,100756.78
2022-11-01T08:15:52.675Z,100763.06
2022-11-01T08:18:24.364Z,100775.03
2022-11-01T08:20:51.274Z,100762.69
2022-11-01T08:23:18.206Z,100765.56
2022-11-01T08:25:45.634Z,100759.25
2022-11-01T08:28:15.688Z,100763.28
2022-11-01T08:30:43.708Z,100766.44
2022-11-01T08:33:10.649Z,100770.25
2022-11-01T08:35:37.605Z,100771.44
2022-11-01T08:38:04.926Z,100774.91
2022-11-01T08:40:33.199Z,100769.66
2022-11-01T08:42:59.944Z,100784.84
2022-11-01T08:45:27.160Z,100786.06
2022-11-01T08:48:01.696Z,100784.19
2022-11-01T08:50:29.188Z,100779.59
2022-11-01T08:52:55.802Z,100777.69
2022-11-01T08:55:23.141Z,100782.00
2022-11-01T08:57:49.995Z,100785.41
2022-11-01T09:00:17.211Z,100788.44
2022-11-01T09:02:43.751Z,100782.75
2022-11-01T09:05:10.395Z,100788.66
2022-11-01T09:07:37.946Z,100789.25
2022-11-01T09:10:05.234Z,100781.47
2022-11-01T09:12:32.104Z,100777.34
2022-11-01T09:14:58.834Z,100788.59
2022-11-01T09:17:25.439Z,100784.50
2022-11-01T09:19:52.065Z,100784.94
2022-11-01T09:22:18.723Z,100788.16
2022-11-01T09:24:45.532Z,100783.97
2022-11-01T09:27:12.388Z,100786.69
2022-11-01T09:29:38.965Z,100771.25
2022-11-01T09:32:06.729Z,100779.50
2022-11-01T09:34:33.854Z,100780.53
2022-11-01T09:37:00.500Z,100769.88
2022-11-01T09:39:27.550Z,100786.34
2022-11-01T09:42:02.952Z,100789.03
2022-11-01T09:44:37.656Z,100786.41
2022-11-01T09:47:08.303Z,100785.56
2022-11-01T09:49:40.716Z,100787.84
2022-11-01T09:52:09.510Z,100795.00
2022-11-01T09:54:37.271Z,100811.16
2022-11-01T09:57:18.029Z,100792.25
2022-11-01T10:00:06.369Z,100802.66
2022-11-01T10:02:41.972Z,100802.66
2022-11-01T10:05:13.183Z,100813.03
2022-11-01T10:08:10.769Z,100815.56
2022-11-01T10:10:49.213Z,100821.72
2022-11-01T10:13:49.688Z,100828.69
2022-11-01T10:16:22.279Z,100824.66
2022-11-01T10:19:21.895Z,100820.84
2022-11-01T10:21:51.067Z,100823.84
2022-11-01T10:24:32.053Z,100839.66
2022-11-01T10:27:37.189Z,100828.84
2022-11-01T10:30:22.172Z,100840.38
2022-11-01T10:33:19.781Z,100842.41
2022-11-01T10:35:53.046Z,100844.03
2022-11-01T10:41:31.131Z,100841.59
2022-11-01T10:44:02.932Z,100839.06
2022-11-01T10:46:34.068Z,100847.63
2022-11-01T10:49:05.575Z,100850.78
2022-11-01T10:51:34.947Z,100846.84
2022-11-01T10:54:05.769Z,100856.56
2022-11-01T10:56:41.654Z,100842.00
2022-11-01T10:59:36.206Z,100834.41
2022-11-01T11:02:14.348Z,100840.06
2022-11-01T11:04:41.106Z,100841.75
2022-11-01T11:07:13.528Z,100834.34
2022-11-01T11:09:40.494Z,100835.13
2022-11-01T11:12:14.717Z,100843.81
2022-11-01T11:14:42.615Z,100842.53
2022-11-01T11:17:22.660Z,100836.00
2022-11-01T11:19:52.474Z,100847.88
2022-11-01T11:22:21.467Z,100843.47
2022-11-01T11:24:48.887Z,100856.72
2022-11-01T11:27:25.357Z,100857.66
2022-11-01T11:29:54.498Z,100861.75
2022-11-01T11:32:26.936Z,100874.84
2022-11-01T11:34:58.991Z,100859.13
2022-11-01T11:37:30.158Z,100873.00
2022-11-01T11:40:02.781Z,100872.53
2022-11-01T11:42:30.460Z,100867.06
2022-11-01T11:45:17.341Z,100875.75
2022-11-01T11:47:44.620Z,100884.38
2022-11-01T11:50:20.525Z,100894.13
2022-11-01T11:52:56.578Z,100885.06
2022-11-01T11:55:36.581Z,100897.81
2022-11-01T11:58:05.909Z,100905.78
2022-11-01T12:00:37.925Z,100907.59
2022-11-01T12:03:08.111Z,100896.78
2022-11-01T12:05:35.034Z,100917.00
2022-11-01T12:08:01.682Z,100925.88
2022-11-01T12:10:40.354Z,100922.19
2022-11-01T12:13:31.960Z,100915.75
2022-11-01T12:16:24.370Z,100927.94
2022-11-01T12:19:02.411Z,100930.41
2022-11-01T12:21:34.295Z,100917.22
2022-11-01T12:24:39.651Z,100924.94
2022-11-01T12:27:14.342Z,100923.22
2022-11-01T12:29:53.807Z,100929.81
2022-11-01T12:32:26.069Z,100935.63
2022-11-01T12:34:55.958Z,100934.56
2022-11-01T12:37:51.445Z,100946.22
2022-11-01T12:40:26.870Z,100953.19
2022-11-01T12:43:03.682Z,100955.78
2022-11-01T12:45:39.803Z,100951.44
2022-11-01T12:48:09.841Z,100953.63
2022-11-01T12:50:48.953Z,100947.75
2022-11-01T12:53:20.400Z,100950.88
2022-11-01T12:55:47.178Z,100950.38
2022-11-01T12:58:21.843Z,100954.94
2022-11-01T13:01:13.661Z,100955.72
2022-11-01T13:04:05.924Z,100962.13
2022-11-01T13:06:54.431Z,100969.31
2022-11-01T13:09:53.183Z,100971.41
2022-11-01T13:12:40.035Z,100978.75
2022-11-01T13:15:25.570Z,100979.44
2022-11-01T13:17:59.481Z,100977.81
2022-11-01T13:20:35.581Z,100993.81
2022-11-01T13:23:25.381Z,100990.59
2022-11-01T13:26:17.699Z,100992.31
2022-11-01T13:29:07.446Z,100991.50
2022-11-01T13:32:02.429Z,100996.56
2022-11-01T13:34:59.730Z,100999.56
2022-11-01T13:37:43.307Z,101006.09
2022-11-01T13:40:31.712Z,101012.88
2022-11-01T13:43:08.098Z,101006.31
2022-11-01T13:45:45.198Z,101011.81
2022-11-01T13:48:27.140Z,101010.50
2022-11-01T13:51:17.876Z,101021.41
2022-11-01T13:53:49.523Z,101015.81
2022-11-01T13:56:29.174Z,101018.72
2022-11-01T13:58:56.289Z,101021.94
2022-11-01T14:01:30.543Z,101024.00
2022-11-01T14:04:12.282Z,101022.16
2022-11-01T14:06:41.840Z,101012.94
2022-11-01T14:09:20.510Z,101017.06
2022-11-01T14:11:55.078Z,101010.63
2022-11-01T14:14:30.897Z,101008.13
2022-11-01T14:17:16.213Z,101006.94
2022-11-01T14:19:43.659Z,101015.94
2022-11-01T14:22:22.074Z,101017.47
2022-11-01T14:25:00.835Z,101007.91
2022-11-01T14:27:35.081Z,101017.16
2022-11-01T14:30:02.889Z,101014.88
2022-11-01T14:32:31.621Z,101024.16
2022-11-01T14:35:23.783Z,101023.19
2022-11-01T14:37:53.563Z,101028.09
2022-11-01T14:40:22.918Z,101028.22
2022-11-01T14:42:52.135Z,101023.75
2022-11-01T14:45:29.074Z,101029.34
2022-11-01T14:48:04.748Z,101032.66
2022-11-01T14:50:47.857Z,101038.16
2022-11-01T14:53:31.461Z,101039.41
2022-11-01T14:56:15.207Z,101048.31
2022-11-01T14:58:42.525Z,101054.22
2022-11-01T15:01:23.357Z,101054.00
2022-11-01T15:03:58.738Z,101045.75
2022-11-01T15:06:28.577Z,101059.38
2022-11-01T15:08:59.758Z,101057.41
2022-11-01T15:11:34.856Z,101059.38
2022-11-01T15:14:04.847Z,101060.75
2022-11-01T15:16:35.409Z,101062.56
2022-11-01T15:19:32.461Z,101048.06
2022-11-01T15:22:03.215Z,101066.81
2022-11-01T15:24:33.490Z,101057.81
2022-11-01T15:27:11.949Z,101062.25
2022-11-01T15:29:38.554Z,101068.06
2022-11-01T15:32:05.615Z,101066.59
2022-11-01T15:34:36.707Z,101073.25
2022-11-01T15:37:22.108Z,101074.56
2022-11-01T15:39:49.530Z,101069.25
2022-11-01T15:42:20.441Z,101074.66
2022-11-01T15:44:46.999Z,101078.91
2022-11-01T15:47:18.298Z,101070.53
2022-11-01T15:49:55.497Z,101060.00
2022-11-01T15:52:25.760Z,101054.28
2022-11-01T15:55:09.041Z,101067.72
2022-11-01T15:57:41.933Z,101068.38
2022-11-01T16:00:18.110Z,101067.13
2022-11-01T16:02:47.341Z,101076.66
2022-11-01T16:05:18.771Z,101074.78
2022-11-01T16:07:45.632Z,101074.31
2022-11-01T16:10:30.202Z,101073.66
2022-11-01T16:12:59.646Z,101078.38
2022-11-01T16:15:29.974Z,101076.69
2022-11-01T16:18:00.046Z,101074.78
2022-11-01T16:20:29.390Z,101072.63
2022-11-01T16:22:58.675Z,101068.59
2022-11-01T16:25:28.078Z,101065.97
2022-11-01T16:28:11.325Z,101074.34
2022-11-01T16:30:46.798Z,101075.34
2022-11-01T16:33:35.673Z,101071.69
2022-11-01T16:36:21.350Z,101074.78
2022-11-01T16:38:51.959Z,101083.63
2022-11-01T16:41:24.190Z,101081.28
2022-11-01T16:43:59.129Z,101077.13
2022-11-01T16:46:27.530Z,101080.28
2022-11-01T16:49:05.562Z,101092.00
2022-11-01T16:51:32.501Z,101092.94
2022-11-01T16:54:00.548Z,101096.88
2022-11-01T16:56:48.089Z,101097.22
2022-11-01T16:59:23.632Z,101106.63
2022-11-01T17:01:52.243Z,101108.28
2022-11-01T17:04:19.346Z,101111.81
2022-11-01T17:06:45.925Z,101102.91
2022-11-01T17:09:15.023Z,101113.44
2022-11-01T17:11:47.887Z,101108.84
2022-11-01T17:14:18.320Z,101106.97
2022-11-01T17:16:47.233Z,101103.72
2022-11-01T17:19:31.179Z,101112.13
2022-11-01T17:22:00.413Z,101122.56
2022-11-01T17:24:27.471Z,101112.84
2022-11-01T17:26:57.842Z,101115.38
2022-11-01T17:29:24.541Z,101123.53
2022-11-01T17:31:51.112Z,101124.38
2022-11-01T17:34:17.734Z,101132.13
2022-11-01T17:36:48.535Z,101127.31
2022-11-01T17:39:15.485Z,101134.44
2022-11-01T17:41:42.026Z,101136.00
2022-11-01T17:44:11.406Z,101130.75
2022-11-01T17:46:38.102Z,101132.47
2022-11-01T17:49:05.480Z,101128.50
2022-11-01T17:51:32.558Z,101127.78
2022-11-01T17:53:59.203Z,101124.38
2022-11-01T17:56:25.784Z,101127.16
2022-11-01T17:58:53.712Z,101124.53
2022-11-01T18:01:21.441Z,101134.41
2022-11-01T18:03:49.044Z,101135.88
2022-11-01T18:06:16.333Z,101129.78
2022-11-01T18:08:46.258Z,101142.31
2022-11-01T18:11:34.756Z,101130.50
2022-11-01T18:14:19.758Z,101127.50
2022-11-01T18:16:50.171Z,101124.28
2022-11-01T18:19:25.806Z,101120.06
2022-11-01T18:22:09.621Z,101130.84
2022-11-01T18:24:48.580Z,101131.69
2022-11-01T18:27:22.641Z,101134.31
2022-11-01T18:29:53.402Z,101141.72
2022-11-01T18:32:42.086Z,101142.59
2022-11-01T18:35:30.680Z,101145.28
2022-11-01T18:38:33.446Z,101153.91
2022-11-01T18:41:05.439Z,101151.44
2022-11-01T18:43:37.906Z,101149.50
2022-11-01T18:46:24.978Z,101140.81
2022-11-01T18:49:00.472Z,101151.47
2022-11-01T18:51:33.930Z,101138.03
2022-11-01T18:54:26.773Z,101140.28
2022-11-01T18:56:58.067Z,101148.66
2022-11-01T18:59:34.888Z,101141.16
2022-11-01T19:02:18.121Z,101140.50
2022-11-01T19:04:46.685Z,101143.13
2022-11-01T19:07:20.076Z,101138.41
2022-11-01T19:09:54.813Z,101136.41
2022-11-01T19:12:29.757Z,101142.81
2022-11-01T19:15:04.881Z,101145.47
2022-11-01T19:17:37.348Z,101153.66
2022-11-01T19:20:25.242Z,101156.41
2022-11-01T19:22:54.666Z,101154.66
2022-11-01T19:25:24.277Z,101145.81
2022-11-01T19:27:55.443Z,101157.13
2022-11-01T19:30:26.608Z,101151.63
2022-11-01T19:32:56.191Z,101151.72
2022-11-01T19:35:23.462Z,101156.84
2022-11-01T19:37:53.644Z,101159.38
2022-11-01T19:40:34.920Z,101163.06
2022-11-01T19:43:12.328Z,101165.78
2022-11-01T19:45:46.866Z,101164.56
2022-11-01T19:48:16.600Z,101161.41
2022-11-01T19:50:45.000Z,101159.59
2022-11-01T19:53:26.207Z,101161.38
2022-11-01T19:56:00.211Z,101173.50
2022-11-01T19:58:43.596Z,101168.66
2022-11-01T20:01:25.570Z,101172.84
2022-11-01T20:03:56.643Z,101166.09
2022-11-01T20:06:35.956Z,101164.94
2022-11-01T20:09:13.245Z,101168.06
2022-11-01T20:11:39.857Z,101174.25
2022-11-01T20:14:06.447Z,101171.44
2022-11-01T20:16:33.237Z,101168.50
2022-11-01T20:18:59.792Z,101168.22
2022-11-01T20:21:26.831Z,101172.00
2022-11-01T20:23:53.342Z,101166.13
2022-11-01T20:26:19.875Z,101171.19
2022-11-01T20:28:46.538Z,101172.97
2022-11-01T20:31:13.216Z,101169.31
2022-11-01T20:33:39.860Z,101171.47
2022-11-01T20:36:10.987Z,101173.56
2022-11-01T20:38:38.727Z,101177.53
2022-11-01T20:41:05.668Z,101181.44
2022-11-01T20:43:32.356Z,101167.50
2022-11-01T20:45:58.980Z,101181.19
2022-11-01T20:48:25.872Z,101189.88
2022-11-01T20:50:53.599Z,101186.16
2022-11-01T20:53:20.259Z,101188.38
2022-11-01T20:55:46.815Z,101178.13
2022-11-01T20:58:14.167Z,101179.78
2022-11-01T21:00:40.854Z,101178.59
2022-11-01T21:03:19.426Z,101190.84
2022-11-01T21:05:47.985Z,101192.63
2022-11-01T21:08:25.228Z,101196.50
2022-11-01T21:11:01.628Z,101197.47
2022-11-01T21:13:34.141Z,101191.00
2022-11-01T21:16:02.296Z,101189.66
2022-11-01T21:18:36.413Z,101189.75
2022-11-01T21:21:15.287Z,101177.88
2022-11-01T21:23:44.387Z,101184.06
2022-11-01T21:26:17.414Z,101175.75
2022-11-01T21:28:47.932Z,101169.72
2022-11-01T21:31:14.439Z,101168.66
2022-11-01T21:33:51.451Z,101169.25
2022-11-01T21:36:20.788Z,101172.13
2022-11-01T21:39:00.866Z,101172.00
2022-11-01T21:41:33.155Z,101173.28
2022-11-01T21:44:14.349Z,101169.13
2022-11-01T21:46:41.004Z,101169.16
2022-11-01T21:49:43.398Z,101159.88
2022-11-01T21:54:43.225Z,101153.28
2022-11-01T21:57:11.064Z,101158.53
2022-11-01T21:59:37.711Z,101162.22
2022-11-01T22:02:05.953Z,101149.38
2022-11-01T22:04:33.096Z,101151.06
2022-11-01T22:07:01.857Z,101145.13
2022-11-01T22:09:29.066Z,101136.03
2022-11-01T22:11:56.078Z,101133.16
2022-11-01T22:14:22.841Z,101139.06
2022-11-01T22:16:49.471Z,101141.19
2022-11-01T22:19:16.354Z,101134.16
2022-11-01T22:21:42.968Z,101131.06
2022-11-01T22:24:12.595Z,101130.56
2022-11-01T22:26:39.150Z,101133.69
2022-11-01T22:29:05.988Z,101129.16
2022-11-01T22:31:32.539Z,101123.41
2022-11-01T22:33:59.122Z,101125.94
2022-11-01T22:36:30.601Z,101127.56
2022-11-01T22:42:56.236Z,101133.03
2022-11-01T22:45:22.879Z,101121.41
2022-11-01T22:47:49.501Z,101123.50
2022-11-01T22:50:26.631Z,101122.84
2022-11-01T22:52:53.212Z,101125.78
2022-11-01T22:55:27.128Z,101121.16
2022-11-01T22:58:17.572Z,101121.63
2022-11-01T23:00:46.152Z,101109.25
2022-11-01T23:03:25.775Z,101109.53
2022-11-01T23:05:54.574Z,101116.00
2022-11-01T23:08:32.429Z,101104.59
2022-11-01T23:11:00.134Z,101102.75
2022-11-01T23:13:50.578Z,101100.63
2022-11-01T23:16:28.973Z,101104.78
2022-11-01T23:18:59.335Z,101097.41
2022-11-01T23:21:27.467Z,101100.75
2022-11-01T23:23:54.447Z,101099.00
2022-11-01T23:26:23.130Z,101099.13
2022-11-01T23:28:54.632Z,101095.16
2022-11-01T23:31:23.480Z,101091.66
2022-11-01T23:33:50.667Z,101098.22
2022-11-01T23:36:29.167Z,101093.47
2022-11-01T23:39:02.203Z,101094.81
2022-11-01T23:41:50.721Z,101095.00
2022-11-01T23:44:36.904Z,101091.25
2022-11-01T23:47:15.314Z,101092.16
2022-11-01T23:49:43.760Z,101099.97
2022-11-01T23:52:28.731Z,101096.63
2022-11-01T23:54:55.424Z,101101.22
2022-11-01T23:57:22.018Z,101095.22
2022-11-01T23:59:50.910Z,101096.38
